createdAt,value
2019-02-18T00:02:15.145Z,38.87
2019-02-18T00:04:45.599Z,39.03
2019-02-18T00:07:16.102Z,37.37
2019-02-18T00:09:46.565Z,40.97
2019-02-18T00:12:17.078Z,40.67
2019-02-18T00:14:47.581Z,39.60
2019-02-18T00:17:18.240Z,40.67
2019-02-18T00:19:48.700Z,41.13
2019-02-18T00:22:19.163Z,40.57
2019-02-18T00:24:49.658Z,41.60
2019-02-18T00:27:20.119Z,39.50
2019-02-18T00:29:50.577Z,40.37
2019-02-18T00:32:21.078Z,39.73
2019-02-18T00:34:51.533Z,39.80
2019-02-18T00:37:24.378Z,38.90
2019-02-18T00:39:54.342Z,38.50
2019-02-18T00:42:25.011Z,39.37
2019-02-18T00:44:55.526Z,39.60
2019-02-18T00:47:25.987Z,39.83
2019-02-18T00:49:56.451Z,38.13
2019-02-18T00:52:26.962Z,37.70
2019-02-18T00:54:57.436Z,39.03
2019-02-18T00:57:27.947Z,38.50
2019-02-18T00:59:58.449Z,38.23
2019-02-18T01:02:29.006Z,38.83
2019-02-18T01:04:59.614Z,37.97
2019-02-18T01:07:34.829Z,36.53
2019-02-18T01:10:02.370Z,38.47
2019-02-18T01:12:32.833Z,36.20
2019-02-18T01:15:03.799Z,38.90
2019-02-18T01:17:34.427Z,37.53
2019-02-18T01:20:05.495Z,38.90
2019-02-18T01:22:35.963Z,38.20
2019-02-18T01:25:07.617Z,37.83
2019-02-18T01:27:38.085Z,36.67
2019-02-18T01:30:11.389Z,37.23
2019-02-18T01:32:41.949Z,38.67
2019-02-18T01:35:12.657Z,36.77
2019-02-18T01:37:46.083Z,36.53
2019-02-18T01:40:15.611Z,36.60
2019-02-18T01:42:46.089Z,35.47
2019-02-18T01:45:16.707Z,36.87
2019-02-18T01:47:47.173Z,36.33
2019-02-18T01:50:17.789Z,36.27
2019-02-18T01:52:48.257Z,34.57
2019-02-18T01:55:18.778Z,35.27
2019-02-18T01:57:49.249Z,33.57
2019-02-18T02:00:19.853Z,33.53
2019-02-18T02:02:50.359Z,34.67
2019-02-18T02:05:20.914Z,34.23
2019-02-18T02:07:56.306Z,33.80
2019-02-18T02:10:23.606Z,33.87
2019-02-18T02:13:14.443Z,33.07
2019-02-18T02:15:44.905Z,31.67
2019-02-18T02:18:15.424Z,32.03
2019-02-18T02:20:45.905Z,33.50
2019-02-18T02:23:16.439Z,31.67
2019-02-18T02:25:46.954Z,30.90
2019-02-18T02:28:17.430Z,30.97
2019-02-18T02:30:47.907Z,33.00
2019-02-18T02:33:18.425Z,31.17
2019-02-18T02:35:48.890Z,31.30
2019-02-18T02:38:19.413Z,30.60
2019-02-18T02:40:49.994Z,30.33
2019-02-18T02:43:20.519Z,30.37
2019-02-18T02:45:50.998Z,32.83
2019-02-18T02:48:21.466Z,32.43
2019-02-18T02:50:52.068Z,32.83
2019-02-18T02:53:22.537Z,32.33
2019-02-18T02:55:53.016Z,34.17
2019-02-18T02:58:23.523Z,31.87
2019-02-18T03:00:54.030Z,31.93
2019-02-18T03:03:24.583Z,31.50
2019-02-18T03:05:55.115Z,30.50
2019-02-18T03:08:25.640Z,31.30
2019-02-18T03:10:56.111Z,30.03
2019-02-18T03:13:26.601Z,32.53
2019-02-18T03:15:57.118Z,32.20
2019-02-18T03:18:27.689Z,30.53
2019-02-18T03:20:58.173Z,31.67
2019-02-18T03:23:28.702Z,31.40
2019-02-18T03:25:59.221Z,29.20
2019-02-18T03:29:10.434Z,30.40
2019-02-18T03:31:40.917Z,31.53
2019-02-18T03:34:21.619Z,30.87
2019-02-18T03:36:52.111Z,29.77
2019-02-18T03:39:22.594Z,29.13
2019-02-18T03:41:53.483Z,30.30
2019-02-18T03:44:23.975Z,29.23
2019-02-18T03:46:54.498Z,31.70
2019-02-18T03:49:25.003Z,32.00
2019-02-18T03:51:55.486Z,31.90
2019-02-18T03:54:26.046Z,30.60
2019-02-18T03:56:56.641Z,28.70
2019-02-18T03:59:27.185Z,26.60
2019-02-18T04:01:57.827Z,26.00
2019-02-18T04:04:28.371Z,25.87
2019-02-18T04:06:58.860Z,27.07
2019-02-18T04:09:29.386Z,24.57
2019-02-18T04:11:59.887Z,28.00
2019-02-18T04:14:30.477Z,28.23
2019-02-18T04:17:01.178Z,26.93
2019-02-18T04:19:31.745Z,26.10
2019-02-18T04:22:02.262Z,27.30
2019-02-18T04:24:32.735Z,27.17
2019-02-18T04:27:03.265Z,27.83
2019-02-18T04:29:33.755Z,26.70
2019-02-18T04:32:04.234Z,26.20
2019-02-18T04:34:34.715Z,26.77
2019-02-18T04:37:05.191Z,27.07
2019-02-18T04:39:35.707Z,27.07
2019-02-18T04:42:06.300Z,27.23
2019-02-18T04:44:36.922Z,27.07
2019-02-18T04:47:07.506Z,30.90
2019-02-18T04:49:38.006Z,29.43
2019-02-18T04:52:08.477Z,28.90
2019-02-18T04:54:38.956Z,29.57
2019-02-18T04:57:09.431Z,26.67
2019-02-18T04:59:39.954Z,28.27
2019-02-18T05:02:10.437Z,29.63
2019-02-18T05:04:40.913Z,28.40
2019-02-18T05:07:11.476Z,29.23
2019-02-18T05:09:41.982Z,29.53
2019-02-18T05:12:12.466Z,29.57
2019-02-18T05:14:43.005Z,31.03
2019-02-18T05:17:13.517Z,29.77
2019-02-18T05:19:43.983Z,29.17
2019-02-18T05:22:14.525Z,28.17
2019-02-18T05:24:44.982Z,31.47
2019-02-18T05:27:15.486Z,30.77
2019-02-18T05:29:45.959Z,30.30
2019-02-18T05:32:16.527Z,30.43
2019-02-18T05:34:46.978Z,33.63
2019-02-18T05:37:17.492Z,33.73
2019-02-18T05:39:47.962Z,29.97
2019-02-18T05:42:18.489Z,30.40
2019-02-18T05:44:48.961Z,30.43
2019-02-18T05:47:19.424Z,31.17
2019-02-18T05:49:49.951Z,31.50
2019-02-18T05:52:20.415Z,31.90
2019-02-18T05:54:50.914Z,30.60
2019-02-18T05:57:22.855Z,33.43
2019-02-18T05:59:53.683Z,33.70
2019-02-18T06:02:24.179Z,33.27
2019-02-18T06:04:54.852Z,32.27
2019-02-18T06:07:25.332Z,30.23
2019-02-18T06:09:55.923Z,35.03
2019-02-18T06:12:26.432Z,36.60
2019-02-18T06:14:56.935Z,33.40
2019-02-18T06:17:27.463Z,34.83
2019-02-18T06:19:57.994Z,35.97
2019-02-18T06:22:28.503Z,35.17
2019-02-18T06:24:59.025Z,35.13
2019-02-18T06:27:29.532Z,40.63
2019-02-18T06:30:00.415Z,37.30
2019-02-18T06:32:31.204Z,37.37
2019-02-18T06:35:01.724Z,36.63
2019-02-18T06:37:32.411Z,35.43
2019-02-18T06:40:02.978Z,31.53
2019-02-18T06:42:33.829Z,29.40
2019-02-18T06:45:35.423Z,25.87
2019-02-18T06:48:21.485Z,26.57
2019-02-18T06:50:52.374Z,28.43
2019-02-18T06:53:22.891Z,31.23
2019-02-18T06:55:53.386Z,31.13
2019-02-18T06:58:45.524Z,32.23
2019-02-18T07:01:21.647Z,34.77
2019-02-18T07:04:26.226Z,34.60
2019-02-18T07:07:08.401Z,29.90
2019-02-18T07:09:55.324Z,28.07
2019-02-18T07:12:28.934Z,24.53
2019-02-18T07:14:59.438Z,22.93
2019-02-18T07:17:30.045Z,23.83
2019-02-18T07:20:00.574Z,21.30
2019-02-18T07:22:31.614Z,20.80
2019-02-18T07:25:02.123Z,21.40
2019-02-18T07:27:32.593Z,20.97
2019-02-18T07:30:03.159Z,19.17
2019-02-18T07:32:33.648Z,21.57
2019-02-18T07:35:04.627Z,17.73
2019-02-18T07:37:35.104Z,16.60
2019-02-18T07:40:06.636Z,19.17
2019-02-18T07:42:37.183Z,17.73
2019-02-18T07:45:08.832Z,18.97
2019-02-18T07:47:39.307Z,18.57
2019-02-18T07:50:19.992Z,21.83
2019-02-18T07:52:42.569Z,19.00
2019-02-18T07:55:13.247Z,17.10
2019-02-18T07:57:43.781Z,18.47
2019-02-18T08:00:14.968Z,19.53
2019-02-18T08:02:45.488Z,19.77
2019-02-18T08:05:16.011Z,18.33
2019-02-18T08:07:46.570Z,17.53
2019-02-18T08:10:17.055Z,16.07
2019-02-18T08:12:47.538Z,16.53
2019-02-18T08:15:18.201Z,17.10
2019-02-18T08:17:48.787Z,17.33
2019-02-18T08:20:19.269Z,17.67
2019-02-18T08:22:49.809Z,18.40
2019-02-18T08:25:20.291Z,18.07
2019-02-18T08:27:50.934Z,16.97
2019-02-18T08:30:21.547Z,16.00
2019-02-18T08:32:52.081Z,18.57
2019-02-18T08:35:22.655Z,18.33
2019-02-18T08:37:54.241Z,17.80
2019-02-18T08:40:24.775Z,17.43
2019-02-18T08:42:55.276Z,17.07
2019-02-18T08:45:25.874Z,18.10
2019-02-18T08:47:56.343Z,18.37
2019-02-18T08:50:26.860Z,18.63
2019-02-18T08:52:57.338Z,16.83
2019-02-18T08:55:27.847Z,17.10
2019-02-18T08:57:58.382Z,16.90
2019-02-18T09:00:28.863Z,14.83
2019-02-18T09:02:59.443Z,15.97
2019-02-18T09:05:29.972Z,14.30
2019-02-18T09:08:00.492Z,13.97
2019-02-18T09:10:33.885Z,16.90
2019-02-18T09:13:03.308Z,17.53
2019-02-18T09:15:33.798Z,12.17
2019-02-18T09:18:04.331Z,10.33
2019-02-18T09:20:34.814Z,9.80
2019-02-18T09:23:23.056Z,15.93
2019-02-18T09:25:56.506Z,8.30
2019-02-18T09:28:27.030Z,8.10
2019-02-18T09:30:57.812Z,8.83
2019-02-18T09:33:28.337Z,8.03
2019-02-18T09:35:58.818Z,10.10
2019-02-18T09:38:29.295Z,10.33
2019-02-18T09:40:59.807Z,11.73
2019-02-18T09:43:30.455Z,10.30
2019-02-18T09:46:00.932Z,9.13
2019-02-18T09:48:31.405Z,11.40
2019-02-18T09:51:01.923Z,10.30
2019-02-18T09:53:32.540Z,11.10
2019-02-18T09:56:03.109Z,12.00
2019-02-18T09:58:33.590Z,11.57
2019-02-18T10:01:04.300Z,12.60
2019-02-18T10:03:34.759Z,13.03
2019-02-18T10:06:05.374Z,12.87
2019-02-18T10:08:35.867Z,11.80
2019-02-18T10:11:06.463Z,13.97
2019-02-18T10:13:37.010Z,11.93
2019-02-18T10:16:07.496Z,13.37
2019-02-18T10:18:37.979Z,13.23
2019-02-18T10:21:08.497Z,12.10
2019-02-18T10:23:38.991Z,11.17
2019-02-18T10:26:09.616Z,11.50
2019-02-18T10:28:40.139Z,11.27
2019-02-18T10:31:10.760Z,10.03
2019-02-18T10:33:41.356Z,10.97
2019-02-18T10:36:11.902Z,10.97
2019-02-18T10:38:42.510Z,9.80
2019-02-18T10:41:13.068Z,10.27
2019-02-18T10:43:43.646Z,11.53
2019-02-18T10:46:14.246Z,10.70
2019-02-18T10:48:44.972Z,10.30
2019-02-18T10:51:15.453Z,9.93
2019-02-18T10:53:45.992Z,9.13
2019-02-18T10:56:16.471Z,10.33
2019-02-18T10:58:47.164Z,10.27
2019-02-18T11:01:17.643Z,10.80
2019-02-18T11:03:48.190Z,9.93
2019-02-18T11:06:18.847Z,9.67
2019-02-18T11:08:49.317Z,9.00
2019-02-18T11:11:19.854Z,9.00
2019-02-18T11:13:50.532Z,8.77
2019-02-18T11:16:21.038Z,8.60
2019-02-18T11:18:51.665Z,7.93
2019-02-18T11:21:22.154Z,8.13
2019-02-18T11:23:52.695Z,8.50
2019-02-18T11:26:23.166Z,6.63
2019-02-18T11:28:53.669Z,6.50
2019-02-18T11:31:24.132Z,6.33
2019-02-18T11:33:54.703Z,6.60
2019-02-18T11:36:25.168Z,6.60
2019-02-18T11:38:55.663Z,6.50
2019-02-18T11:41:27.620Z,6.87
2019-02-18T11:43:58.245Z,6.67
2019-02-18T11:46:28.803Z,7.00
2019-02-18T11:48:59.361Z,7.27
2019-02-18T11:51:30.585Z,6.60
2019-02-18T11:54:01.043Z,6.93
2019-02-18T11:56:31.636Z,7.00
2019-02-18T11:59:02.109Z,7.10
2019-02-18T12:01:32.626Z,7.53
2019-02-18T12:04:03.112Z,7.73
2019-02-18T12:06:33.591Z,7.80
2019-02-18T12:09:05.553Z,7.83
2019-02-18T12:11:38.277Z,7.30
2019-02-18T12:14:08.393Z,7.10
2019-02-18T12:16:38.915Z,7.53
2019-02-18T12:19:09.466Z,7.93
2019-02-18T12:21:39.983Z,8.10
2019-02-18T12:24:10.516Z,8.10
2019-02-18T12:26:41.069Z,7.70
2019-02-18T12:29:11.625Z,7.47
2019-02-18T12:31:42.129Z,7.20
2019-02-18T12:34:12.597Z,7.77
2019-02-18T12:36:43.233Z,7.17
2019-02-18T12:39:15.054Z,7.57
2019-02-18T12:41:48.627Z,7.37
2019-02-18T12:44:17.732Z,7.20
2019-02-18T12:46:48.357Z,8.17
2019-02-18T12:49:18.926Z,8.83
2019-02-18T12:51:49.606Z,8.17
2019-02-18T12:54:20.119Z,7.23
2019-02-18T12:56:50.678Z,7.47
2019-02-18T12:59:21.234Z,7.00
2019-02-18T13:01:52.845Z,6.77
2019-02-18T13:04:23.327Z,6.70
2019-02-18T13:06:54.621Z,6.43
2019-02-18T13:09:25.250Z,6.67
2019-02-18T13:14:28.025Z,5.20
2019-02-18T13:16:58.552Z,6.13
2019-02-18T13:19:29.116Z,5.07
2019-02-18T13:21:59.977Z,4.70
2019-02-18T13:24:30.477Z,5.57
2019-02-18T13:27:01.023Z,5.37
2019-02-18T13:29:31.541Z,5.50
2019-02-18T13:32:02.230Z,6.20
2019-02-18T13:34:33.139Z,4.77
2019-02-18T13:37:04.882Z,4.97
2019-02-18T13:39:35.476Z,4.57
2019-02-18T13:42:07.660Z,5.10
2019-02-18T13:44:39.795Z,4.87
2019-02-18T13:47:10.347Z,4.60
2019-02-18T13:49:42.084Z,4.57
2019-02-18T13:52:12.629Z,4.73
2019-02-18T13:54:43.101Z,4.13
2019-02-18T13:57:13.673Z,4.17
2019-02-18T13:59:44.209Z,4.87
2019-02-18T14:02:14.931Z,5.00
2019-02-18T14:04:45.381Z,4.80
2019-02-18T14:07:15.913Z,10.60
2019-02-18T14:09:46.449Z,5.03
2019-02-18T14:12:17.437Z,5.03
2019-02-18T14:14:47.955Z,5.90
2019-02-18T14:17:18.480Z,4.93
2019-02-18T14:19:48.975Z,3.90
2019-02-18T14:22:19.742Z,5.23
2019-02-18T14:24:50.252Z,4.07
2019-02-18T14:27:20.913Z,4.80
2019-02-18T14:29:51.749Z,5.40
2019-02-18T14:32:22.303Z,5.60
2019-02-18T14:34:52.843Z,5.87
2019-02-18T14:37:23.455Z,21.30
2019-02-18T14:39:53.938Z,9.63
2019-02-18T14:42:24.758Z,7.93
2019-02-18T14:44:55.331Z,7.77
2019-02-18T14:47:26.748Z,7.93
2019-02-18T14:49:57.390Z,7.30
2019-02-18T14:52:27.933Z,8.27
2019-02-18T14:54:58.588Z,8.30
2019-02-18T14:57:29.373Z,7.10
2019-02-18T14:59:59.861Z,8.50
2019-02-18T15:02:30.364Z,7.90
2019-02-18T15:05:00.901Z,7.87
2019-02-18T15:07:31.462Z,8.83
2019-02-18T15:10:02.223Z,8.33
2019-02-18T15:12:33.305Z,8.20
2019-02-18T15:15:03.799Z,8.37
2019-02-18T15:17:34.412Z,8.20
2019-02-18T15:20:05.056Z,7.80
2019-02-18T15:22:35.570Z,8.53
2019-02-18T15:25:06.422Z,10.23
2019-02-18T15:27:37.119Z,11.23
2019-02-18T15:30:08.802Z,9.77
2019-02-18T15:32:39.578Z,8.93
2019-02-18T15:35:10.322Z,8.93
2019-02-18T15:37:40.915Z,10.10
2019-02-18T15:40:12.619Z,9.50
2019-02-18T15:42:43.333Z,9.37
2019-02-18T15:45:14.252Z,10.07
2019-02-18T15:47:44.724Z,9.87
2019-02-18T15:50:16.081Z,9.23
2019-02-18T15:52:46.560Z,10.27
2019-02-18T15:55:17.139Z,10.27
2019-02-18T15:57:47.598Z,10.40
2019-02-18T16:00:20.327Z,10.10
2019-02-18T16:02:51.222Z,10.13
2019-02-18T16:05:21.958Z,10.70
2019-02-18T16:07:52.561Z,11.40
2019-02-18T16:10:23.023Z,11.97
2019-02-18T16:12:53.583Z,12.73
2019-02-18T16:15:24.279Z,12.90
2019-02-18T16:17:54.760Z,12.87
2019-02-18T16:20:25.278Z,12.07
2019-02-18T16:22:55.818Z,10.63
2019-02-18T16:25:26.361Z,12.77
2019-02-18T16:27:56.844Z,11.60
2019-02-18T16:30:27.394Z,12.37
2019-02-18T16:32:57.912Z,23.53
2019-02-18T16:35:28.768Z,29.47
2019-02-18T16:37:59.374Z,19.97
2019-02-18T16:40:30.243Z,169.07
2019-02-18T16:43:02.452Z,382.97
2019-02-18T16:45:33.487Z,379.50
2019-02-18T16:48:04.293Z,326.83
2019-02-18T16:50:34.826Z,277.07
2019-02-18T16:53:05.316Z,191.23
2019-02-18T16:55:36.069Z,147.87
2019-02-18T16:58:06.591Z,108.63
2019-02-18T17:00:37.311Z,102.63
2019-02-18T17:03:07.815Z,41.47
2019-02-18T17:05:38.320Z,59.20
2019-02-18T17:08:11.115Z,57.40
2019-02-18T17:10:41.636Z,41.93
2019-02-18T17:13:12.125Z,44.37
2019-02-18T17:15:42.602Z,46.57
2019-02-18T17:18:13.233Z,41.43
2019-02-18T17:20:43.734Z,41.40
2019-02-18T17:23:14.468Z,40.43
2019-02-18T17:25:45.119Z,44.47
2019-02-18T17:28:15.630Z,51.50
2019-02-18T17:30:46.099Z,34.60
2019-02-18T17:33:16.606Z,50.63
2019-02-18T17:35:47.123Z,36.40
2019-02-18T17:38:17.599Z,36.03
2019-02-18T17:40:48.074Z,32.70
2019-02-18T17:43:18.694Z,35.67
2019-02-18T17:45:49.207Z,36.57
2019-02-18T17:48:19.683Z,26.93
2019-02-18T17:50:50.529Z,23.50
2019-02-18T17:53:21.004Z,29.80
2019-02-18T17:55:51.472Z,29.77
2019-02-18T17:58:21.995Z,31.90
2019-02-18T18:00:54.438Z,26.27
2019-02-18T18:03:25.379Z,28.00
2019-02-18T18:05:55.867Z,26.57
2019-02-18T18:08:26.377Z,23.63
2019-02-18T18:10:56.838Z,25.37
2019-02-18T18:13:27.354Z,23.60
2019-02-18T18:15:57.819Z,25.73
2019-02-18T18:18:28.326Z,23.97
2019-02-18T18:20:58.802Z,25.07
2019-02-18T18:23:29.337Z,23.80
2019-02-18T18:25:59.838Z,23.93
2019-02-18T18:28:30.443Z,25.27
2019-02-18T18:31:01.147Z,31.80
2019-02-18T18:33:31.671Z,23.93
2019-02-18T18:36:02.137Z,26.50
2019-02-18T18:38:32.668Z,27.27
2019-02-18T18:41:03.142Z,35.20
2019-02-18T18:43:34.241Z,30.00
2019-02-18T18:46:04.923Z,31.63
2019-02-18T18:48:35.447Z,31.90
2019-02-18T18:51:06.023Z,29.67
2019-02-18T18:53:36.486Z,26.00
2019-02-18T18:56:06.946Z,24.50
2019-02-18T18:58:37.398Z,24.43
2019-02-18T19:01:08.008Z,25.70
2019-02-18T19:03:38.466Z,26.17
2019-02-18T19:06:09.016Z,25.53
2019-02-18T19:08:39.513Z,25.07
2019-02-18T19:11:10.025Z,25.40
2019-02-18T19:13:42.250Z,23.37
2019-02-18T19:16:12.909Z,23.70
2019-02-18T19:21:37.570Z,23.97
2019-02-18T19:24:08.025Z,25.70
2019-02-18T19:26:38.491Z,27.17
2019-02-18T19:29:08.993Z,26.80
2019-02-18T19:31:39.733Z,26.90
2019-02-18T19:34:10.262Z,27.60
2019-02-18T19:36:40.727Z,32.07
2019-02-18T19:39:11.759Z,25.90
2019-02-18T19:41:42.272Z,27.43
2019-02-18T19:44:12.774Z,27.90
2019-02-18T19:46:43.230Z,29.67
2019-02-18T19:49:13.759Z,32.30
2019-02-18T19:51:44.217Z,27.43
2019-02-18T19:54:14.736Z,26.53
2019-02-18T19:56:45.197Z,25.87
2019-02-18T19:59:15.710Z,23.97
2019-02-18T20:01:46.270Z,20.30
2019-02-18T20:04:16.771Z,19.17
2019-02-18T20:06:47.373Z,19.10
2019-02-18T20:09:17.874Z,19.67
2019-02-18T20:11:48.516Z,20.03
2019-02-18T20:14:19.025Z,19.17
2019-02-18T20:16:49.524Z,20.97
2019-02-18T20:19:19.998Z,24.90
2019-02-18T20:21:50.514Z,30.57
2019-02-18T20:24:21.362Z,32.73
2019-02-18T20:26:51.879Z,34.33
2019-02-18T20:29:22.378Z,33.90
2019-02-18T20:31:52.846Z,36.17
2019-02-18T20:34:23.306Z,34.77
2019-02-18T20:36:53.804Z,31.07
2019-02-18T20:39:24.309Z,25.50
2019-02-18T20:41:54.775Z,27.87
2019-02-18T20:44:25.251Z,30.30
2019-02-18T20:46:55.762Z,31.43
2019-02-18T20:49:26.216Z,31.10
2019-02-18T20:51:56.910Z,31.43
2019-02-18T20:54:27.364Z,33.53
2019-02-18T20:56:57.879Z,31.87
2019-02-18T20:59:28.345Z,33.30
2019-02-18T21:01:58.953Z,31.80
2019-02-18T21:04:29.701Z,31.90
2019-02-18T21:07:00.226Z,31.53
2019-02-18T21:09:30.704Z,29.70
2019-02-18T21:12:01.177Z,30.43
2019-02-18T21:14:31.691Z,32.20
2019-02-18T21:17:02.142Z,33.10
2019-02-18T21:19:32.641Z,32.77
2019-02-18T21:22:03.142Z,32.97
2019-02-18T21:24:33.647Z,32.63
2019-02-18T21:27:04.099Z,34.67
2019-02-18T21:29:34.598Z,36.00
2019-02-18T21:32:05.108Z,33.10
2019-02-18T21:34:35.588Z,33.57
2019-02-18T21:37:06.058Z,33.93
2019-02-18T21:39:36.559Z,31.27
2019-02-18T21:42:07.123Z,26.83
2019-02-18T21:44:37.834Z,26.70
2019-02-18T21:47:08.307Z,28.83
2019-02-18T21:49:38.821Z,32.67
2019-02-18T21:52:09.295Z,32.37
2019-02-18T21:54:39.802Z,34.40
2019-02-18T21:57:10.269Z,34.53
2019-02-18T21:59:40.785Z,36.60
2019-02-18T22:02:11.253Z,37.17
2019-02-18T22:04:41.729Z,37.13
2019-02-18T22:07:12.245Z,37.23
2019-02-18T22:09:42.720Z,38.27
2019-02-18T22:12:13.515Z,38.43
2019-02-18T22:14:44.052Z,36.80
2019-02-18T22:17:14.548Z,38.53
2019-02-18T22:19:45.189Z,38.20
2019-02-18T22:22:15.709Z,39.17
2019-02-18T22:24:46.325Z,40.17
2019-02-18T22:27:16.990Z,36.77
2019-02-18T22:29:47.453Z,35.73
2019-02-18T22:32:18.058Z,35.33
2019-02-18T22:34:48.533Z,36.53
2019-02-18T22:37:19.006Z,35.53
2019-02-18T22:39:49.522Z,36.13
2019-02-18T22:42:20.041Z,37.40
2019-02-18T22:44:50.626Z,36.30
2019-02-18T22:47:22.464Z,38.50
2019-02-18T22:49:52.973Z,37.27
2019-02-18T22:52:23.450Z,38.90
2019-02-18T22:54:54.226Z,37.47
2019-02-18T22:57:24.738Z,40.77
2019-02-18T22:59:55.221Z,41.90
2019-02-18T23:02:25.740Z,42.90
2019-02-18T23:04:56.217Z,41.70
2019-02-18T23:07:26.738Z,45.13
2019-02-18T23:09:57.206Z,46.03
2019-02-18T23:12:27.710Z,44.63
2019-02-18T23:14:58.166Z,43.70
2019-02-18T23:17:28.665Z,42.63
2019-02-18T23:19:59.178Z,43.93
2019-02-18T23:22:29.691Z,43.17
2019-02-18T23:25:00.266Z,44.03
2019-02-18T23:27:31.032Z,44.97
2019-02-18T23:30:01.488Z,45.97
2019-02-18T23:32:31.982Z,43.60
2019-02-18T23:35:02.483Z,43.30
2019-02-18T23:37:33.280Z,43.80
2019-02-18T23:40:03.897Z,43.33
2019-02-18T23:42:34.466Z,44.03
2019-02-18T23:45:05.230Z,44.73
2019-02-18T23:47:35.700Z,44.27
2019-02-18T23:50:06.433Z,42.67
2019-02-18T23:52:36.903Z,42.60
2019-02-18T23:55:07.644Z,44.47
2019-02-18T23:57:38.119Z,43.30
